Time;durP1;ratioP1;P1;durP2;ratioP2;P2;SDS_P1;SDS_P2;PMS_P1;PMS_P2;Temp;Humidity;BMP_temperature;BMP_pressure;BME280_temperature;BME280_humidity;BME280_pressure;Samples;Min_cycle;Max_cycle;Signal;HPM_P1;HPM_P2
2022/11/16 00:01:17;;;;;;;1.13;1.00;;;11.10;99.90;;;;;;4954679;28;20188;-90
2022/11/16 00:03:43;;;;;;;2.73;2.50;;;11.10;99.90;;;;;;4969478;28;20311;-89
2022/11/16 00:06:11;;;;;;;1.90;1.27;;;11.10;99.90;;;;;;4953387;28;20221;-90
2022/11/16 00:08:40;;;;;;;3.03;1.97;;;11.10;99.90;;;;;;4969315;28;20236;-86
2022/11/16 00:11:06;;;;;;;1.73;1.63;;;11.20;99.90;;;;;;4969031;28;20670;-86
2022/11/16 00:13:34;;;;;;;2.13;1.93;;;11.20;99.90;;;;;;4970133;28;20216;-85
2022/11/16 00:16:00;;;;;;;2.10;1.87;;;11.10;99.90;;;;;;4969686;28;20283;-87
2022/11/16 00:18:26;;;;;;;3.47;2.80;;;11.10;99.90;;;;;;4953294;28;20311;-87
2022/11/16 00:20:52;;;;;;;2.23;2.03;;;11.10;99.90;;;;;;4969822;28;20266;-87
2022/11/16 00:23:17;;;;;;;4.40;2.87;;;11.10;99.90;;;;;;4970182;28;20561;-87
2022/11/16 00:25:43;;;;;;;2.90;2.27;;;11.10;99.90;;;;;;4953136;28;20201;-87
2022/11/16 00:28:09;;;;;;;4.47;2.97;;;11.10;99.90;;;;;;4969605;28;20204;-88
2022/11/16 00:30:35;;;;;;;4.90;2.87;;;11.10;99.90;;;;;;4952689;28;20358;-86
2022/11/16 00:33:03;;;;;;;3.50;2.13;;;11.10;99.90;;;;;;4969186;28;20248;-86
2022/11/16 00:35:28;;;;;;;3.93;2.67;;;11.10;99.90;;;;;;4969202;28;20217;-86
2022/11/16 00:37:54;;;;;;;0.93;0.93;;;11.00;99.90;;;;;;4952344;28;20231;-85
2022/11/16 00:40:20;;;;;;;2.10;2.00;;;11.10;99.90;;;;;;4969581;28;20658;-87
2022/11/16 00:42:46;;;;;;;1.63;1.53;;;11.10;99.90;;;;;;4969946;28;20311;-87
2022/11/16 00:45:12;;;;;;;4.03;3.30;;;11.10;99.90;;;;;;4952977;28;20225;-87
2022/11/16 00:47:37;;;;;;;1.57;1.47;;;11.20;99.90;;;;;;4952475;28;20695;-87
2022/11/16 00:50:04;;;;;;;4.67;2.70;;;11.10;99.90;;;;;;4952599;28;20223;-89
2022/11/16 00:52:29;;;;;;;1.40;1.30;;;11.10;99.90;;;;;;4969469;28;20255;-85
2022/11/16 00:54:55;;;;;;;1.70;1.60;;;11.10;99.90;;;;;;4952628;28;20315;-84
2022/11/16 00:57:22;;;;;;;4.00;3.00;;;11.20;99.90;;;;;;4968466;28;21020;-86
2022/11/16 00:59:47;;;;;;;1.93;1.17;;;11.20;99.90;;;;;;4952253;28;20251;-85
2022/11/16 01:02:13;;;;;;;1.87;1.77;;;11.20;99.90;;;;;;4967909;28;20240;-85
2022/11/16 01:04:39;;;;;;;4.67;3.57;;;11.20;99.90;;;;;;4967818;28;20208;-86
2022/11/16 01:07:05;;;;;;;5.40;2.83;;;11.20;99.90;;;;;;4952531;28;20209;-86
2022/11/16 01:09:31;;;;;;;1.17;1.17;;;11.30;99.90;;;;;;4968937;28;20335;-88
2022/11/16 01:12:08;;;;;;;1.80;1.70;;;11.30;99.90;;;;;;4968463;28;20224;-86
2022/11/16 01:14:40;;;;;;;3.47;2.50;;;11.30;99.90;;;;;;4939224;28;20248;-85
2022/11/16 01:17:07;;;;;;;4.30;2.50;;;11.30;99.90;;;;;;4969022;28;20419;-85
2022/11/16 01:19:34;;;;;;;3.67;2.67;;;11.40;99.90;;;;;;4968090;28;20786;-85
2022/11/16 01:22:00;;;;;;;2.97;1.47;;;11.40;99.90;;;;;;4968199;28;20207;-85
2022/11/16 01:24:26;;;;;;;5.00;2.97;;;11.30;99.90;;;;;;4967922;28;20315;-87
2022/11/16 01:26:56;;;;;;;4.00;3.00;;;11.40;99.90;;;;;;4951690;28;20224;-87
2022/11/16 01:29:27;;;;;;;2.53;1.97;;;11.40;99.90;;;;;;4967871;28;20244;-87
2022/11/16 01:31:54;;;;;;;2.87;2.37;;;11.40;99.90;;;;;;4968689;28;20580;-86
2022/11/16 01:34:20;;;;;;;2.17;1.93;;;11.40;99.90;;;;;;4951562;28;20713;-86
2022/11/16 01:36:46;;;;;;;2.20;1.77;;;11.40;99.90;;;;;;4967614;28;21086;-86
2022/11/16 01:39:12;;;;;;;2.33;2.20;;;11.40;99.90;;;;;;4968028;28;20217;-86
2022/11/16 01:41:40;;;;;;;2.00;1.80;;;11.50;99.90;;;;;;4967410;28;20686;-85
2022/11/16 01:44:30;;;;;;;4.20;3.70;;;11.50;99.90;;;;;;4967569;28;20227;-86
2022/11/16 01:46:56;;;;;;;4.03;3.47;;;11.50;99.90;;;;;;4968372;28;20228;-86
2022/11/16 01:49:26;;;;;;;3.07;2.77;;;11.50;99.90;;;;;;4967360;28;20247;-87
2022/11/16 01:51:55;;;;;;;3.20;2.80;;;11.60;99.90;;;;;;4967280;28;20252;-86
2022/11/16 01:54:21;;;;;;;5.33;3.60;;;11.50;99.90;;;;;;4967421;28;20241;-85
2022/11/16 01:56:48;;;;;;;4.43;3.17;;;11.50;99.90;;;;;;4967661;28;20585;-86
2022/11/16 01:59:14;;;;;;;4.23;2.17;;;11.60;99.90;;;;;;4951240;28;20224;-87
2022/11/16 02:01:40;;;;;;;1.40;1.30;;;11.60;99.90;;;;;;4967023;28;20193;-87
2022/11/16 02:04:08;;;;;;;5.37;3.87;;;11.60;99.90;;;;;;4966938;28;20259;-86
2022/11/16 02:06:59;;;;;;;3.10;2.17;;;11.60;99.90;;;;;;4967557;28;20319;-85
2022/11/16 02:09:53;;;;;;;3.13;2.50;;;11.60;99.90;;;;;;4967934;28;20714;-87
2022/11/16 02:12:34;;;;;;;6.10;4.40;;;11.60;99.90;;;;;;4968196;28;21044;-85
2022/11/16 02:15:20;;;;;;;3.90;3.13;;;11.70;99.90;;;;;;4967572;28;20225;-85
2022/11/16 02:18:28;;;;;;;5.47;3.37;;;11.70;99.90;;;;;;4965181;28;20720;-85
2022/11/16 02:21:00;;;;;;;2.80;2.23;;;11.60;99.90;;;;;;4967920;28;20234;-85
2022/11/16 02:23:34;;;;;;;3.93;2.47;;;11.70;99.90;;;;;;4966549;28;20311;-85
2022/11/16 02:26:25;;;;;;;4.37;2.73;;;11.70;99.90;;;;;;4967826;28;20215;-86
2022/11/16 02:29:12;;;;;;;3.37;2.57;;;11.70;99.90;;;;;;4966812;28;20217;-85
2022/11/16 02:31:46;;;;;;;3.10;2.90;;;11.60;99.90;;;;;;4967632;28;20199;-85
2022/11/16 02:34:14;;;;;;;5.40;4.40;;;11.70;99.90;;;;;;4967272;28;20204;-87
2022/11/16 02:36:42;;;;;;;4.40;2.93;;;11.70;99.90;;;;;;4966160;28;20236;-87
2022/11/16 02:39:13;;;;;;;3.80;2.67;;;11.70;99.90;;;;;;4966342;28;20220;-86
2022/11/16 02:41:41;;;;;;;3.97;2.30;;;11.80;99.90;;;;;;4965504;28;20712;-84
2022/11/16 02:44:27;;;;;;;7.53;3.93;;;11.80;99.90;;;;;;4966646;28;20687;-87
2022/11/16 02:46:57;;;;;;;5.33;4.10;;;11.80;99.90;;;;;;4967191;28;20228;-83
2022/11/16 02:49:25;;;;;;;3.87;2.73;;;11.80;99.90;;;;;;4968305;28;20537;-86
2022/11/16 02:51:53;;;;;;;4.50;2.33;;;11.80;99.90;;;;;;4966447;28;20599;-85
2022/11/16 02:54:20;;;;;;;5.20;3.73;;;11.80;99.90;;;;;;4967699;28;20244;-87
2022/11/16 02:56:49;;;;;;;5.13;4.03;;;11.80;99.90;;;;;;4965786;28;20220;-85
2022/11/16 02:59:15;;;;;;;2.50;2.00;;;11.80;99.90;;;;;;4967485;28;20216;-86
2022/11/16 03:01:48;;;;;;;5.27;4.03;;;11.80;99.90;;;;;;4966353;28;20197;-86
2022/11/16 03:04:20;;;;;;;4.67;4.23;;;11.80;99.90;;;;;;4983609;28;20669;-86
2022/11/16 03:06:49;;;;;;;4.73;4.10;;;11.80;99.90;;;;;;4967256;28;20271;-87
2022/11/16 03:09:23;;;;;;;3.90;3.40;;;11.80;99.90;;;;;;4966918;28;20228;-86
2022/11/16 03:12:00;;;;;;;5.23;4.00;;;11.90;99.90;;;;;;4966580;28;20238;-86
2022/11/16 03:14:44;;;;;;;3.43;2.63;;;11.90;99.90;;;;;;4965891;28;20632;-86
2022/11/16 03:17:16;;;;;;;8.30;4.87;;;11.90;99.90;;;;;;4967494;28;20701;-87
2022/11/16 03:19:56;;;;;;;9.17;4.90;;;11.90;99.90;;;;;;4966119;28;20267;-85
2022/11/16 03:22:43;;;;;;;3.80;2.83;;;11.90;99.90;;;;;;4967089;28;20231;-86
2022/11/16 03:25:12;;;;;;;4.30;3.33;;;11.90;99.90;;;;;;4967359;28;20688;-87
2022/11/16 03:27:37;;;;;;;3.67;3.23;;;11.90;99.90;;;;;;4957927;28;20216;-86
2022/11/16 03:30:19;;;;;;;3.23;1.93;;;11.90;99.90;;;;;;4967297;28;21071;-86
2022/11/16 03:33:23;;;;;;;5.30;3.63;;;11.90;99.90;;;;;;4965827;28;20223;-86
2022/11/16 03:36:32;;;;;;;4.53;4.20;;;11.90;99.90;;;;;;4951955;28;20686;-86
2022/11/16 03:39:04;;;;;;;3.50;3.17;;;11.90;99.90;;;;;;4962119;28;20212;-87
2022/11/16 03:41:31;;;;;;;4.27;3.87;;;12.00;99.90;;;;;;4966044;28;20208;-87
2022/11/16 03:43:58;;;;;;;4.80;2.40;;;11.90;99.90;;;;;;4966672;28;20230;-88
2022/11/16 03:46:24;;;;;;;5.23;3.83;;;11.90;99.90;;;;;;4950234;28;20234;-88
2022/11/16 03:48:56;;;;;;;5.23;4.27;;;11.90;99.90;;;;;;4958687;28;20679;-87
2022/11/16 03:51:22;;;;;;;3.73;3.07;;;11.90;99.90;;;;;;4981765;28;20654;-87
2022/11/16 03:53:47;;;;;;;4.13;3.07;;;11.90;99.90;;;;;;4935047;28;20235;-86
2022/11/16 03:56:13;;;;;;;2.87;2.03;;;12.00;99.90;;;;;;4967471;28;20236;-87
2022/11/16 03:58:39;;;;;;;4.30;2.90;;;12.00;99.90;;;;;;4953274;28;20243;-86
2022/11/16 04:01:05;;;;;;;5.07;3.70;;;11.90;99.90;;;;;;4953653;28;20196;-87
2022/11/16 04:03:30;;;;;;;4.40;3.67;;;12.00;99.90;;;;;;4969900;28;20220;-87
2022/11/16 04:25:25;;;;;;;3.83;2.70;;;12.00;99.90;;;;;;4970000;28;20224;-89
2022/11/16 04:39:24;;;;;;;2.63;2.43;;;12.00;99.90;;;;;;4955512;28;20318;-87
2022/11/16 04:47:19;;;;;;;3.03;2.77;;;12.10;99.90;;;;;;4969803;28;20217;-87
2022/11/16 04:49:44;;;;;;;6.30;3.23;;;12.10;99.90;;;;;;4968985;28;20281;-87
2022/11/16 04:52:10;;;;;;;5.33;2.90;;;12.10;99.90;;;;;;4952246;28;20295;-87
2022/11/16 04:54:36;;;;;;;4.83;3.63;;;12.10;99.90;;;;;;4968803;28;20237;-88
2022/11/16 04:57:02;;;;;;;6.77;2.63;;;12.00;99.90;;;;;;4952358;28;20894;-87
2022/11/16 04:59:28;;;;;;;5.23;2.90;;;12.10;99.90;;;;;;4968725;28;20212;-86
2022/11/16 05:02:08;;;;;;;3.03;2.83;;;12.10;99.90;;;;;;4952284;28;20212;-87
2022/11/16 05:04:39;;;;;;;4.37;3.80;;;12.10;99.90;;;;;;4968515;28;20224;-88
2022/11/16 05:07:09;;;;;;;3.90;3.47;;;12.10;99.90;;;;;;4951787;28;20235;-87
2022/11/16 05:09:43;;;;;;;3.10;2.50;;;12.10;99.90;;;;;;4968500;28;20248;-87
2022/11/16 05:12:13;;;;;;;3.87;2.97;;;12.20;99.90;;;;;;4969026;28;20279;-87
2022/11/16 05:14:40;;;;;;;4.83;4.00;;;12.20;99.90;;;;;;4968232;28;20240;-88
2022/11/16 05:17:06;;;;;;;4.80;4.30;;;12.20;99.90;;;;;;4968036;28;20220;-87
2022/11/16 05:22:16;;;;;;;4.37;3.60;;;12.20;99.90;;;;;;4954617;28;20216;-87
2022/11/16 05:24:41;;;;;;;5.07;4.47;;;12.10;99.90;;;;;;4951978;28;20220;-87
2022/11/16 05:27:10;;;;;;;6.10;4.03;;;12.20;99.90;;;;;;4951705;28;20248;-88
2022/11/16 05:29:36;;;;;;;7.60;4.43;;;12.20;99.90;;;;;;4984126;28;20217;-87
2022/11/16 05:32:02;;;;;;;5.30;4.13;;;12.20;99.90;;;;;;4936080;28;20219;-87
2022/11/16 05:34:28;;;;;;;3.97;2.90;;;12.30;99.90;;;;;;4969094;28;20209;-88
2022/11/16 05:36:55;;;;;;;4.13;3.53;;;12.20;99.90;;;;;;4935491;28;20716;-87
2022/11/16 05:39:21;;;;;;;5.20;3.70;;;12.30;99.90;;;;;;4968056;28;20216;-87
2022/11/16 05:41:47;;;;;;;2.87;2.67;;;12.30;99.90;;;;;;4967460;28;20228;-87
2022/11/16 05:44:14;;;;;;;4.20;3.27;;;12.30;99.90;;;;;;4968119;28;20315;-87
2022/11/16 05:46:40;;;;;;;3.57;2.87;;;12.30;99.90;;;;;;4967639;28;20643;-86
2022/11/16 05:49:08;;;;;;;2.83;2.50;;;12.30;99.90;;;;;;4968472;28;20189;-88
2022/11/16 05:51:35;;;;;;;5.20;3.53;;;12.20;99.90;;;;;;4968593;28;20239;-86
2022/11/16 05:54:02;;;;;;;3.90;3.53;;;12.20;99.90;;;;;;4967906;28;20241;-89
2022/11/16 05:56:29;;;;;;;7.53;4.10;;;12.20;99.90;;;;;;4951331;28;20243;-84
2022/11/16 05:58:54;;;;;;;5.27;4.07;;;12.20;99.90;;;;;;4944204;28;20224;-85
2022/11/16 06:01:20;;;;;;;4.83;3.57;;;12.20;99.90;;;;;;4951557;28;20201;-87
2022/11/16 06:03:46;;;;;;;6.10;3.83;;;12.10;99.90;;;;;;4950666;28;20216;-89
2022/11/16 06:06:11;;;;;;;7.80;4.23;;;12.20;99.90;;;;;;4966514;28;20217;-86
2022/11/16 06:08:37;;;;;;;5.40;3.07;;;12.30;99.90;;;;;;4932119;28;20229;-85
2022/11/16 06:11:04;;;;;;;7.53;4.13;;;12.20;99.90;;;;;;4949173;28;20682;-86
2022/11/16 06:13:31;;;;;;;6.37;3.97;;;12.20;99.90;;;;;;4968377;28;20316;-87
2022/11/16 06:15:57;;;;;;;4.97;3.43;;;12.20;99.90;;;;;;4959207;28;20213;-87
2022/11/16 06:18:23;;;;;;;3.70;3.10;;;12.10;99.90;;;;;;4967448;28;20726;-87
2022/11/16 06:20:49;;;;;;;5.97;3.50;;;12.10;99.90;;;;;;4966404;28;20216;-84
2022/11/16 06:23:14;;;;;;;7.03;5.17;;;12.20;99.90;;;;;;4966141;28;20589;-86
2022/11/16 06:25:40;;;;;;;5.47;3.50;;;12.20;99.90;;;;;;4966655;28;20196;-86
2022/11/16 06:28:06;;;;;;;4.47;3.53;;;12.20;99.90;;;;;;4967198;28;20298;-87
2022/11/16 06:30:32;;;;;;;6.27;3.40;;;12.20;99.90;;;;;;4966666;28;20220;-86
2022/11/16 06:32:58;;;;;;;5.17;3.80;;;12.20;99.90;;;;;;4966463;28;20231;-86
2022/11/16 06:35:24;;;;;;;4.87;2.53;;;12.10;99.90;;;;;;4933488;28;20570;-85
2022/11/16 06:37:50;;;;;;;5.80;4.13;;;12.10;99.90;;;;;;4981587;28;20228;-85
2022/11/16 06:40:15;;;;;;;11.87;4.00;;;12.20;99.90;;;;;;4934663;28;20188;-86
2022/11/16 06:42:41;;;;;;;6.67;3.30;;;12.20;99.90;;;;;;4965712;28;20622;-84
2022/11/16 06:45:07;;;;;;;6.10;2.93;;;12.10;99.90;;;;;;4965742;28;20212;-85
2022/11/16 06:47:33;;;;;;;6.33;4.43;;;12.10;99.90;;;;;;4966545;28;20223;-84
2022/11/16 06:49:59;;;;;;;3.73;2.80;;;12.10;99.90;;;;;;4967230;28;20678;-84
2022/11/16 06:52:25;;;;;;;4.30;3.63;;;12.10;99.90;;;;;;4967000;28;20199;-85
2022/11/16 06:54:51;;;;;;;7.23;4.23;;;11.90;99.90;;;;;;4964982;28;20348;-87
2022/11/16 06:57:17;;;;;;;7.37;4.80;;;12.00;99.90;;;;;;4950457;28;20216;-85
2022/11/16 06:59:42;;;;;;;4.70;3.33;;;12.00;99.90;;;;;;4965477;28;20541;-85
2022/11/16 07:02:13;;;;;;;6.67;3.97;;;12.00;99.90;;;;;;4949981;28;20213;-84
2022/11/16 07:04:38;;;;;;;8.40;3.77;;;12.00;99.90;;;;;;4967503;28;20658;-84
2022/11/16 07:07:04;;;;;;;6.33;4.97;;;12.00;99.90;;;;;;4966163;28;20208;-85
2022/11/16 07:09:30;;;;;;;7.63;4.30;;;12.00;99.90;;;;;;4965931;28;20801;-83
2022/11/16 07:11:56;;;;;;;7.63;4.13;;;12.00;99.90;;;;;;4965351;28;20220;-84
2022/11/16 07:14:22;;;;;;;7.47;4.23;;;11.90;99.90;;;;;;4965558;28;20228;-83
2022/11/16 07:16:47;;;;;;;5.33;3.73;;;11.90;99.90;;;;;;4965193;28;20738;-86
2022/11/16 07:19:13;;;;;;;6.33;4.07;;;11.90;99.90;;;;;;4950319;28;20197;-86
2022/11/16 07:21:39;;;;;;;5.30;4.20;;;11.90;99.90;;;;;;4965265;28;20277;-86
2022/11/16 07:24:05;;;;;;;18.00;10.60;;;11.90;99.90;;;;;;4949416;28;20231;-87
2022/11/16 07:26:34;;;;;;;6.73;4.17;;;11.90;99.90;;;;;;4933423;28;20674;-86
2022/11/16 07:29:01;;;;;;;6.97;4.17;;;11.90;99.90;;;;;;4949196;28;20234;-86
2022/11/16 07:31:27;;;;;;;4.63;2.97;;;11.90;99.90;;;;;;4969475;28;20185;-86
2022/11/16 07:33:53;;;;;;;6.03;2.37;;;11.80;99.90;;;;;;4970504;28;20279;-86
2022/11/16 07:36:20;;;;;;;5.50;3.30;;;11.70;99.90;;;;;;4969839;28;20216;-86
2022/11/16 07:38:46;;;;;;;3.13;2.83;;;11.60;99.90;;;;;;4970596;28;20212;-84
2022/11/16 07:41:14;;;;;;;5.07;3.23;;;11.70;99.90;;;;;;4969015;28;20267;-85
2022/11/16 07:43:40;;;;;;;4.40;3.13;;;11.70;99.90;;;;;;4970773;28;20193;-84
2022/11/16 07:46:11;;;;;;;5.80;3.67;;;11.70;99.90;;;;;;4970003;28;20192;-85
2022/11/16 07:48:37;;;;;;;4.23;2.97;;;11.70;99.90;;;;;;4970335;28;20252;-85
2022/11/16 07:51:09;;;;;;;7.33;3.77;;;11.70;99.90;;;;;;4969682;28;20252;-85
2022/11/16 07:53:35;;;;;;;4.57;4.03;;;11.70;99.90;;;;;;4968683;28;20332;-84
2022/11/16 07:56:02;;;;;;;6.93;4.73;;;11.70;99.90;;;;;;4967797;28;20339;-84
2022/11/16 07:58:29;;;;;;;4.57;2.80;;;11.70;99.90;;;;;;4970281;28;20538;-87
2022/11/16 08:01:11;;;;;;;7.87;3.40;;;11.70;99.90;;;;;;4970785;28;20573;-85
2022/11/16 08:03:38;;;;;;;4.97;3.30;;;11.70;99.90;;;;;;4969319;28;20259;-85
2022/11/16 08:06:15;;;;;;;4.40;2.90;;;11.70;99.90;;;;;;4969057;28;20225;-86
2022/11/16 08:08:42;;;;;;;5.20;3.83;;;11.70;99.90;;;;;;4969645;28;20212;-86
2022/11/16 08:11:10;;;;;;;3.37;2.90;;;11.70;99.90;;;;;;4969208;28;20240;-86
2022/11/16 08:13:37;;;;;;;5.70;4.27;;;11.70;99.90;;;;;;4968885;28;20263;-85
2022/11/16 08:16:11;;;;;;;7.07;3.77;;;11.60;99.90;;;;;;4969537;28;20657;-86
2022/11/16 08:18:38;;;;;;;4.87;3.57;;;11.70;99.90;;;;;;4969149;28;20749;-87
2022/11/16 08:21:06;;;;;;;5.23;3.47;;;11.70;99.90;;;;;;4969598;28;20319;-84
2022/11/16 08:23:32;;;;;;;5.13;3.77;;;11.70;99.90;;;;;;4968162;28;20221;-85
2022/11/16 08:26:09;;;;;;;6.53;3.13;;;11.70;99.90;;;;;;4951721;28;20216;-85
2022/11/16 08:28:36;;;;;;;6.53;4.00;;;11.70;99.90;;;;;;4968856;28;20191;-88
2022/11/16 08:31:12;;;;;;;5.33;2.80;;;11.70;99.90;;;;;;4968899;28;20224;-85
2022/11/16 08:33:38;;;;;;;4.03;3.47;;;11.70;99.90;;;;;;4968271;28;21082;-87
2022/11/16 08:36:09;;;;;;;8.07;4.17;;;11.70;99.90;;;;;;4952409;28;20231;-87
2022/11/16 08:38:34;;;;;;;5.47;4.33;;;11.60;99.90;;;;;;4968223;28;20283;-87
2022/11/16 08:41:00;;;;;;;4.27;3.67;;;11.60;99.90;;;;;;4935609;28;20721;-87
2022/11/16 08:43:28;;;;;;;10.17;3.67;;;11.70;99.90;;;;;;4968864;28;20267;-86
2022/11/16 08:45:54;;;;;;;3.90;3.20;;;11.70;99.90;;;;;;4968760;28;20759;-87
2022/11/16 08:48:20;;;;;;;3.97;2.97;;;11.70;99.90;;;;;;4935922;28;20219;-87
2022/11/16 08:50:46;;;;;;;4.80;3.03;;;11.70;99.90;;;;;;4968095;28;20221;-87
2022/11/16 08:53:14;;;;;;;4.27;3.53;;;11.70;99.90;;;;;;4968551;28;20248;-86
2022/11/16 08:55:41;;;;;;;5.13;3.33;;;11.70;99.90;;;;;;4967737;28;20208;-87
2022/11/16 08:58:07;;;;;;;6.00;4.03;;;11.70;99.90;;;;;;4968761;28;20177;-83
2022/11/16 09:00:33;;;;;;;3.37;3.07;;;11.70;99.90;;;;;;4967719;28;21086;-84
2022/11/16 09:02:59;;;;;;;4.20;2.93;;;11.70;99.90;;;;;;4951409;28;20255;-85
2022/11/16 09:05:25;;;;;;;2.50;2.30;;;11.80;99.90;;;;;;4968956;28;20248;-85
2022/11/16 09:07:50;;;;;;;5.57;3.67;;;11.80;99.90;;;;;;4968057;28;20681;-87
2022/11/16 09:10:21;;;;;;;6.23;4.10;;;11.80;99.90;;;;;;4967607;28;20200;-84
2022/11/16 09:12:48;;;;;;;4.57;3.67;;;11.90;99.90;;;;;;4967573;28;20232;-83
2022/11/16 09:15:14;;;;;;;5.47;3.43;;;11.90;99.90;;;;;;4950114;28;20235;-86
2022/11/16 09:17:39;;;;;;;6.47;3.30;;;11.90;99.90;;;;;;4951005;28;20227;-87
2022/11/16 09:20:06;;;;;;;5.20;3.67;;;12.00;99.90;;;;;;4950996;28;20217;-86
2022/11/16 09:22:31;;;;;;;4.63;3.27;;;11.90;99.90;;;;;;4967528;28;20192;-89
2022/11/16 09:24:57;;;;;;;6.30;4.40;;;12.00;99.90;;;;;;4951534;28;20223;-89
2022/11/16 09:27:23;;;;;;;4.77;2.97;;;12.00;99.90;;;;;;4967987;28;20223;-87
2022/11/16 09:29:49;;;;;;;6.70;4.40;;;12.10;99.90;;;;;;4935971;28;20584;-87
2022/11/16 09:32:15;;;;;;;8.97;4.93;;;12.10;99.90;;;;;;4966864;28;20678;-86
2022/11/16 09:34:41;;;;;;;8.20;5.27;;;12.20;99.90;;;;;;4951262;28;20237;-86
2022/11/16 09:37:07;;;;;;;2.70;2.43;;;12.20;99.90;;;;;;4936234;28;20714;-87
2022/11/16 09:39:33;;;;;;;7.60;3.10;;;12.20;99.90;;;;;;4949878;28;20320;-86
2022/11/16 09:42:21;;;;;;;6.27;4.93;;;12.30;99.90;;;;;;4951257;28;20719;-86
2022/11/16 09:45:07;;;;;;;7.40;4.80;;;12.60;99.90;;;;;;4967861;28;20220;-84
2022/11/16 09:47:42;;;;;;;7.80;4.10;;;12.80;99.90;;;;;;4966741;28;21064;-88
2022/11/16 09:50:45;;;;;;;7.37;4.37;;;13.00;99.90;;;;;;4966892;28;20220;-86
2022/11/16 09:53:29;;;;;;;6.83;4.57;;;13.00;99.90;;;;;;4948936;28;21178;-85
2022/11/16 09:56:11;;;;;;;6.47;4.33;;;13.00;99.90;;;;;;4967782;28;20239;-86
2022/11/16 09:59:21;;;;;;;9.37;5.43;;;12.90;99.90;;;;;;4982887;28;20177;-87
2022/11/16 10:02:08;;;;;;;12.47;5.47;;;13.00;99.90;;;;;;4966943;28;20189;-84
2022/11/16 10:05:11;;;;;;;9.63;5.50;;;13.00;99.90;;;;;;4967802;28;20204;-84
2022/11/16 10:07:42;;;;;;;9.43;4.80;;;13.00;99.90;;;;;;4966653;28;20223;-86
2022/11/16 10:10:17;;;;;;;7.60;6.03;;;13.00;99.90;;;;;;4967727;28;21016;-86
2022/11/16 10:13:06;;;;;;;12.87;5.07;;;13.00;99.90;;;;;;4966934;28;20298;-84
2022/11/16 10:15:37;;;;;;;7.23;4.83;;;13.30;99.90;;;;;;4943442;28;20224;-87
2022/11/16 10:18:21;;;;;;;7.70;6.40;;;13.40;99.90;;;;;;4966005;28;20216;-87
2022/11/16 10:21:13;;;;;;;8.50;5.10;;;13.50;99.90;;;;;;4966377;28;20260;-84
2022/11/16 10:23:59;;;;;;;10.57;5.80;;;13.40;99.90;;;;;;4963505;28;20327;-86
2022/11/16 10:26:44;;;;;;;5.60;3.63;;;13.50;99.90;;;;;;4967491;28;20311;-86
2022/11/16 10:29:23;;;;;;;5.83;4.27;;;13.30;99.90;;;;;;4966445;28;20216;-85
2022/11/16 10:32:10;;;;;;;4.27;2.70;;;13.40;99.90;;;;;;4967493;28;20228;-86
2022/11/16 10:34:50;;;;;;;15.37;5.43;;;13.30;99.90;;;;;;4981723;28;20212;-86
2022/11/16 10:37:16;;;;;;;8.13;4.30;;;13.30;99.90;;;;;;4967820;28;20606;-85
2022/11/16 10:39:42;;;;;;;4.53;3.33;;;13.40;99.90;;;;;;4948802;28;20220;-85
2022/11/16 10:42:17;;;;;;;9.60;4.50;;;13.30;99.90;;;;;;4965825;28;20677;-86
2022/11/16 10:44:53;;;;;;;4.20;3.47;;;13.30;99.90;;;;;;4966171;28;21177;-85
2022/11/16 10:47:41;;;;;;;4.90;3.90;;;13.20;99.90;;;;;;4982104;28;20686;-86
2022/11/16 10:50:34;;;;;;;3.40;2.93;;;13.30;99.90;;;;;;4966318;28;20347;-87
2022/11/16 10:53:00;;;;;;;6.63;3.60;;;13.20;99.90;;;;;;4966375;28;20235;-86
2022/11/16 10:55:27;;;;;;;4.50;3.43;;;13.20;99.90;;;;;;4967789;28;20193;-85
2022/11/16 10:58:02;;;;;;;3.87;3.20;;;13.20;99.90;;;;;;4966220;28;20258;-86
2022/11/16 11:00:37;;;;;;;6.80;3.97;;;13.30;99.90;;;;;;4965999;28;20220;-86
2022/11/16 11:03:03;;;;;;;10.20;3.50;;;13.30;99.90;;;;;;4965777;28;20224;-85
2022/11/16 11:05:30;;;;;;;4.53;2.63;;;13.20;99.90;;;;;;4951635;28;20220;-88
2022/11/16 11:08:04;;;;;;;11.07;3.80;;;13.20;99.90;;;;;;4970796;28;20251;-86
2022/11/16 11:10:40;;;;;;;5.67;3.60;;;13.20;99.90;;;;;;4970313;28;20260;-88
2022/11/16 11:13:19;;;;;;;5.90;3.67;;;13.40;99.90;;;;;;4970338;28;20208;-89
2022/11/16 11:15:46;;;;;;;5.27;2.67;;;13.50;99.90;;;;;;4971581;28;20228;-89
2022/11/16 11:18:24;;;;;;;6.13;3.43;;;13.60;99.90;;;;;;4953463;28;20220;-89
2022/11/16 11:21:12;;;;;;;5.63;2.80;;;13.50;99.90;;;;;;4971441;28;20720;-89
2022/11/16 11:23:52;;;;;;;8.73;3.97;;;13.50;99.90;;;;;;4971166;28;20679;-89
2022/11/16 11:26:39;;;;;;;7.87;3.10;;;13.40;99.90;;;;;;4970649;28;20278;-90
2022/11/16 11:29:25;;;;;;;4.23;2.43;;;13.20;99.90;;;;;;4970330;28;20220;-88
2022/11/16 11:31:56;;;;;;;5.27;3.07;;;13.20;99.90;;;;;;4970684;28;20287;-89
2022/11/16 11:34:31;;;;;;;5.17;3.00;;;13.20;99.90;;;;;;4970343;28;20208;-92
2022/11/16 11:37:00;;;;;;;5.07;4.50;;;13.10;99.90;;;;;;4986061;28;20224;-88
2022/11/16 11:39:28;;;;;;;4.63;4.23;;;13.00;99.90;;;;;;4984846;28;20223;-90
2022/11/16 11:42:21;;;;;;;3.27;2.87;;;13.00;99.90;;;;;;4970443;28;20220;-89
2022/11/16 11:44:57;;;;;;;7.07;4.23;;;12.90;99.90;;;;;;4966134;28;20224;-87
2022/11/16 11:47:47;;;;;;;12.90;4.20;;;12.90;99.90;;;;;;4969181;28;20215;-87
2022/11/16 11:50:18;;;;;;;4.57;3.77;;;12.70;99.90;;;;;;4968472;28;20216;-88
2022/11/16 11:53:06;;;;;;;5.53;4.00;;;12.60;99.90;;;;;;4969224;28;20997;-87
2022/11/16 11:55:32;;;;;;;3.13;2.47;;;12.70;99.90;;;;;;4970864;28;20205;-86
2022/11/16 11:58:00;;;;;;;6.03;3.57;;;12.80;99.90;;;;;;4985868;28;20225;-88
2022/11/16 12:00:28;;;;;;;8.97;4.43;;;13.00;99.90;;;;;;4953217;28;20228;-85
2022/11/16 12:03:06;;;;;;;5.50;4.20;;;13.10;99.90;;;;;;4969358;28;20235;-87
2022/11/16 12:05:50;;;;;;;3.33;3.03;;;13.10;99.90;;;;;;4970418;28;20258;-85
2022/11/16 12:08:36;;;;;;;3.83;2.67;;;13.20;99.90;;;;;;4969730;28;20220;-87
2022/11/16 12:11:35;;;;;;;8.17;3.40;;;13.10;99.90;;;;;;4968090;28;20220;-86
2022/11/16 12:14:32;;;;;;;2.50;1.90;;;13.20;99.90;;;;;;4969077;28;20237;-86
2022/11/16 12:17:24;;;;;;;4.10;2.87;;;13.20;99.90;;;;;;4968572;28;20220;-90
2022/11/16 12:20:18;;;;;;;3.23;2.17;;;13.00;99.90;;;;;;4967906;28;20235;-89
2022/11/16 12:22:55;;;;;;;4.63;2.63;;;12.80;99.90;;;;;;4985103;28;20176;-89
2022/11/16 12:25:44;;;;;;;3.47;2.37;;;12.80;99.90;;;;;;4968881;28;20580;-88
2022/11/16 12:28:22;;;;;;;10.83;3.10;;;12.60;99.90;;;;;;4984797;28;20224;-87
2022/11/16 12:31:14;;;;;;;3.03;2.17;;;12.40;99.90;;;;;;4969647;28;20235;-86
2022/11/16 12:33:55;;;;;;;3.13;2.57;;;12.40;99.90;;;;;;4968107;28;20232;-87
2022/11/16 12:36:48;;;;;;;3.67;2.17;;;12.50;99.90;;;;;;4969991;28;20220;-89
2022/11/16 12:39:29;;;;;;;6.37;2.80;;;12.60;99.90;;;;;;4958165;28;20224;-88
2022/11/16 12:42:06;;;;;;;3.13;2.23;;;12.70;99.90;;;;;;4968995;28;20228;-87
2022/11/16 12:44:54;;;;;;;6.37;2.77;;;12.70;99.90;;;;;;4969035;28;20262;-87
2022/11/16 12:47:58;;;;;;;2.83;2.50;;;12.60;99.90;;;;;;4968528;28;20209;-88
2022/11/16 12:50:29;;;;;;;2.20;1.83;;;12.50;99.90;;;;;;4916709;28;20738;-88
2022/11/16 12:53:16;;;;;;;5.87;2.47;;;12.50;99.90;;;;;;4968724;28;20224;-88
2022/11/16 12:55:51;;;;;;;2.47;2.27;;;12.60;99.90;;;;;;4969807;28;20295;-89
2022/11/16 12:58:53;;;;;;;3.77;2.23;;;12.50;99.90;;;;;;4968356;28;20537;-87
2022/11/16 13:01:34;;;;;;;3.23;2.07;;;12.40;99.90;;;;;;4967014;28;20219;-88
2022/11/16 13:04:14;;;;;;;2.07;1.87;;;12.30;99.90;;;;;;4968310;28;20232;-87
2022/11/16 13:06:51;;;;;;;1.27;1.10;;;12.20;99.90;;;;;;4968039;28;20220;-88
2022/11/16 13:09:31;;;;;;;1.97;1.17;;;12.30;99.90;;;;;;4968869;28;20246;-88
2022/11/16 13:12:01;;;;;;;2.63;1.87;;;12.40;99.90;;;;;;4968115;28;20303;-89
2022/11/16 13:14:36;;;;;;;3.17;1.80;;;12.40;99.90;;;;;;4967882;28;20239;-88
2022/11/16 13:17:04;;;;;;;1.20;1.10;;;12.40;99.90;;;;;;4969011;28;20212;-89
2022/11/16 13:19:31;;;;;;;5.87;1.83;;;12.30;99.90;;;;;;4968387;28;20251;-89
2022/11/16 13:22:06;;;;;;;1.50;1.40;;;12.30;99.90;;;;;;4969152;28;21052;-88
2022/11/16 13:24:40;;;;;;;3.57;1.47;;;12.30;99.90;;;;;;4967925;28;20282;-89
2022/11/16 13:27:09;;;;;;;1.57;1.47;;;12.30;99.90;;;;;;4968033;28;20219;-88
2022/11/16 13:29:59;;;;;;;1.60;1.50;;;12.20;99.90;;;;;;4967939;28;20702;-91
2022/11/16 13:32:31;;;;;;;5.90;1.70;;;12.20;99.90;;;;;;4967653;28;20252;-89
2022/11/16 13:35:04;;;;;;;3.80;1.43;;;12.20;99.90;;;;;;4967863;28;20236;-86
2022/11/16 13:37:35;;;;;;;2.13;1.67;;;12.20;99.90;;;;;;4984068;28;20185;-88
2022/11/16 13:40:02;;;;;;;0.80;0.80;;;12.30;99.90;;;;;;4968280;28;20769;-90
2022/11/16 13:42:29;;;;;;;9.30;1.90;;;12.30;99.90;;;;;;4967530;28;20252;-88
2022/11/16 13:45:06;;;;;;;1.60;0.97;;;12.30;99.90;;;;;;4967915;28;20718;-90
2022/11/16 13:47:32;;;;;;;3.50;1.67;;;12.30;99.90;;;;;;4967881;28;20226;-88
2022/11/16 13:50:02;;;;;;;1.27;1.17;;;12.30;99.90;;;;;;4967020;28;20686;-87